sensor_id;sensor_type;location;lat;lon;timestamp;temperature;humidity
13794;DHT22;31160;49.500;7.772;2024-03-25T00:01:45;5.80;99.90
13794;DHT22;31160;49.500;7.772;2024-03-25T00:04:11;5.70;99.90
13794;DHT22;31160;49.500;7.772;2024-03-25T00:06:37;5.70;99.90
13794;DHT22;31160;49.500;7.772;2024-03-25T00:09:04;5.70;99.90
13794;DHT22;31160;49.500;7.772;2024-03-25T00:11:33;5.60;99.90
13794;DHT22;31160;49.500;7.772;2024-03-25T00:14:00;5.60;99.90
13794;DHT22;31160;49.500;7.772;2024-03-25T00:16:27;5.60;99.90
13794;DHT22;31160;49.500;7.772;2024-03-25T00:18:54;5.50;99.90
13794;DHT22;31160;49.500;7.772;2024-03-25T00:21:21;5.50;99.90
13794;DHT22;31160;49.500;7.772;2024-03-25T00:23:47;5.50;99.90
13794;DHT22;31160;49.500;7.772;2024-03-25T00:26:14;5.40;99.90
13794;DHT22;31160;49.500;7.772;2024-03-25T00:28:40;5.40;99.90
13794;DHT22;31160;49.500;7.772;2024-03-25T00:31:07;5.30;99.90
13794;DHT22;31160;49.500;7.772;2024-03-25T00:33:33;5.20;99.90
13794;DHT22;31160;49.500;7.772;2024-03-25T00:36:00;5.20;99.90
13794;DHT22;31160;49.500;7.772;2024-03-25T00:38:27;5.10;99.90
13794;DHT22;31160;49.500;7.772;2024-03-25T00:40:54;5.10;99.90
13794;DHT22;31160;49.500;7.772;2024-03-25T00:43:21;5.10;99.90
13794;DHT22;31160;49.500;7.772;2024-03-25T00:45:48;5.00;99.90
13794;DHT22;31160;49.500;7.772;2024-03-25T00:48:15;5.10;99.90
13794;DHT22;31160;49.500;7.772;2024-03-25T00:50:41;5.10;99.90
13794;DHT22;31160;49.500;7.772;2024-03-25T00:53:08;5.20;99.90
13794;DHT22;31160;49.500;7.772;2024-03-25T00:55:35;5.20;99.90
13794;DHT22;31160;49.500;7.772;2024-03-25T00:58:02;5.20;99.90
13794;DHT22;31160;49.500;7.772;2024-03-25T01:00:29;5.10;99.90
13794;DHT22;31160;49.500;7.772;2024-03-25T01:02:55;5.10;99.90
13794;DHT22;31160;49.500;7.772;2024-03-25T01:05:21;5.10;99.90
13794;DHT22;31160;49.500;7.772;2024-03-25T01:07:47;5.00;99.90
13794;DHT22;31160;49.500;7.772;2024-03-25T01:10:13;5.00;99.90
13794;DHT22;31160;49.500;7.772;2024-03-25T01:12:39;4.90;99.90
13794;DHT22;31160;49.500;7.772;2024-03-25T01:15:05;4.90;99.90
13794;DHT22;31160;49.500;7.772;2024-03-25T01:17:31;4.90;99.90
13794;DHT22;31160;49.500;7.772;2024-03-25T01:19:57;4.80;99.90
13794;DHT22;31160;49.500;7.772;2024-03-25T01:22:23;4.80;99.90
13794;DHT22;31160;49.500;7.772;2024-03-25T01:24:49;4.80;99.90
13794;DHT22;31160;49.500;7.772;2024-03-25T01:27:15;4.70;99.90
13794;DHT22;31160;49.500;7.772;2024-03-25T01:29:41;4.70;99.90
13794;DHT22;31160;49.500;7.772;2024-03-25T01:32:07;4.60;99.90
13794;DHT22;31160;49.500;7.772;2024-03-25T01:34:33;4.50;99.90
13794;DHT22;31160;49.500;7.772;2024-03-25T01:36:59;4.50;99.90
13794;DHT22;31160;49.500;7.772;2024-03-25T01:39:25;4.50;99.90
13794;DHT22;31160;49.500;7.772;2024-03-25T01:41:50;4.40;99.90
13794;DHT22;31160;49.500;7.772;2024-03-25T01:44:16;4.40;99.90
13794;DHT22;31160;49.500;7.772;2024-03-25T01:46:42;4.40;99.90
13794;DHT22;31160;49.500;7.772;2024-03-25T01:49:08;4.30;99.90
13794;DHT22;31160;49.500;7.772;2024-03-25T01:51:36;4.20;99.90
13794;DHT22;31160;49.500;7.772;2024-03-25T01:54:04;4.10;99.90
13794;DHT22;31160;49.500;7.772;2024-03-25T01:56:32;4.10;99.90
13794;DHT22;31160;49.500;7.772;2024-03-25T01:58:59;4.00;99.90
13794;DHT22;31160;49.500;7.772;2024-03-25T02:01:27;4.00;99.90
13794;DHT22;31160;49.500;7.772;2024-03-25T02:03:53;3.90;99.90
13794;DHT22;31160;49.500;7.772;2024-03-25T02:06:20;3.90;99.90
13794;DHT22;31160;49.500;7.772;2024-03-25T02:08:48;3.80;99.90
13794;DHT22;31160;49.500;7.772;2024-03-25T02:11:15;3.80;99.90
13794;DHT22;31160;49.500;7.772;2024-03-25T02:13:41;3.70;99.90
13794;DHT22;31160;49.500;7.772;2024-03-25T02:16:07;3.60;99.90
13794;DHT22;31160;49.500;7.772;2024-03-25T02:18:33;3.60;99.90
13794;DHT22;31160;49.500;7.772;2024-03-25T02:20:59;3.50;99.90
13794;DHT22;31160;49.500;7.772;2024-03-25T02:23:26;3.50;99.90
13794;DHT22;31160;49.500;7.772;2024-03-25T02:25:53;3.40;99.90
13794;DHT22;31160;49.500;7.772;2024-03-25T02:28:20;3.40;99.90
13794;DHT22;31160;49.500;7.772;2024-03-25T02:30:46;3.30;99.90
13794;DHT22;31160;49.500;7.772;2024-03-25T02:33:13;3.20;99.90
13794;DHT22;31160;49.500;7.772;2024-03-25T02:35:40;3.20;99.90
13794;DHT22;31160;49.500;7.772;2024-03-25T02:38:07;3.10;99.90
13794;DHT22;31160;49.500;7.772;2024-03-25T02:40:34;3.00;99.90
13794;DHT22;31160;49.500;7.772;2024-03-25T02:43:01;3.00;99.90
13794;DHT22;31160;49.500;7.772;2024-03-25T02:45:27;3.00;99.90
13794;DHT22;31160;49.500;7.772;2024-03-25T02:47:52;3.00;99.90
13794;DHT22;31160;49.500;7.772;2024-03-25T02:50:19;3.00;99.90
13794;DHT22;31160;49.500;7.772;2024-03-25T02:52:44;2.90;99.90
13794;DHT22;31160;49.500;7.772;2024-03-25T02:55:10;2.90;99.90
13794;DHT22;31160;49.500;7.772;2024-03-25T02:57:36;2.90;99.90
13794;DHT22;31160;49.500;7.772;2024-03-25T03:00:02;2.90;99.90
13794;DHT22;31160;49.500;7.772;2024-03-25T03:02:29;2.90;99.90
13794;DHT22;31160;49.500;7.772;2024-03-25T03:04:54;2.80;99.90
13794;DHT22;31160;49.500;7.772;2024-03-25T03:07:20;2.70;99.90
13794;DHT22;31160;49.500;7.772;2024-03-25T03:09:46;2.70;99.90
13794;DHT22;31160;49.500;7.772;2024-03-25T03:12:12;2.70;99.90
13794;DHT22;31160;49.500;7.772;2024-03-25T03:14:38;2.60;99.90
13794;DHT22;31160;49.500;7.772;2024-03-25T03:17:04;2.60;99.90
13794;DHT22;31160;49.500;7.772;2024-03-25T03:19:30;2.60;99.90
13794;DHT22;31160;49.500;7.772;2024-03-25T03:21:56;2.50;99.90
13794;DHT22;31160;49.500;7.772;2024-03-25T03:24:22;2.50;99.90
13794;DHT22;31160;49.500;7.772;2024-03-25T03:26:49;2.60;99.90
13794;DHT22;31160;49.500;7.772;2024-03-25T03:29:15;2.50;99.90
13794;DHT22;31160;49.500;7.772;2024-03-25T03:31:40;2.50;99.90
13794;DHT22;31160;49.500;7.772;2024-03-25T03:34:06;2.50;99.90
13794;DHT22;31160;49.500;7.772;2024-03-25T03:36:32;2.50;99.90
13794;DHT22;31160;49.500;7.772;2024-03-25T03:38:58;2.40;99.90
13794;DHT22;31160;49.500;7.772;2024-03-25T03:41:24;2.30;99.90
13794;DHT22;31160;49.500;7.772;2024-03-25T03:43:50;2.20;99.90
13794;DHT22;31160;49.500;7.772;2024-03-25T03:46:15;2.20;99.90
13794;DHT22;31160;49.500;7.772;2024-03-25T03:48:41;2.20;99.90
13794;DHT22;31160;49.500;7.772;2024-03-25T03:51:08;2.20;99.90
13794;DHT22;31160;49.500;7.772;2024-03-25T03:53:34;2.20;99.90
13794;DHT22;31160;49.500;7.772;2024-03-25T03:56:02;2.00;99.90
13794;DHT22;31160;49.500;7.772;2024-03-25T03:58:29;2.00;99.90
13794;DHT22;31160;49.500;7.772;2024-03-25T04:00:55;1.90;99.90
13794;DHT22;31160;49.500;7.772;2024-03-25T04:03:21;1.90;99.90
13794;DHT22;31160;49.500;7.772;2024-03-25T04:05:47;1.90;99.90
13794;DHT22;31160;49.500;7.772;2024-03-25T04:08:13;1.90;99.90
13794;DHT22;31160;49.500;7.772;2024-03-25T04:10:39;1.80;99.90
13794;DHT22;31160;49.500;7.772;2024-03-25T04:13:06;1.80;99.90
13794;DHT22;31160;49.500;7.772;2024-03-25T04:15:37;1.80;99.90
13794;DHT22;31160;49.500;7.772;2024-03-25T04:18:04;1.70;99.90
13794;DHT22;31160;49.500;7.772;2024-03-25T04:20:39;1.70;99.90
13794;DHT22;31160;49.500;7.772;2024-03-25T04:23:05;1.80;99.90
13794;DHT22;31160;49.500;7.772;2024-03-25T04:25:33;1.80;99.90
13794;DHT22;31160;49.500;7.772;2024-03-25T04:27:59;1.80;99.90
13794;DHT22;31160;49.500;7.772;2024-03-25T04:30:25;1.80;99.90
13794;DHT22;31160;49.500;7.772;2024-03-25T04:32:51;1.70;99.90
13794;DHT22;31160;49.500;7.772;2024-03-25T04:35:17;1.70;99.90
13794;DHT22;31160;49.500;7.772;2024-03-25T04:37:43;1.80;99.90
13794;DHT22;31160;49.500;7.772;2024-03-25T04:40:10;1.70;99.90
13794;DHT22;31160;49.500;7.772;2024-03-25T04:42:36;1.70;99.90
13794;DHT22;31160;49.500;7.772;2024-03-25T04:45:02;1.70;99.90
13794;DHT22;31160;49.500;7.772;2024-03-25T04:47:27;1.60;99.90
13794;DHT22;31160;49.500;7.772;2024-03-25T04:49:53;1.60;99.90
13794;DHT22;31160;49.500;7.772;2024-03-25T04:52:19;1.50;99.90
13794;DHT22;31160;49.500;7.772;2024-03-25T04:54:49;1.50;99.90
13794;DHT22;31160;49.500;7.772;2024-03-25T04:57:15;1.40;99.90
13794;DHT22;31160;49.500;7.772;2024-03-25T04:59:41;1.40;99.90
13794;DHT22;31160;49.500;7.772;2024-03-25T05:02:07;1.40;99.90
13794;DHT22;31160;49.500;7.772;2024-03-25T05:04:32;1.40;99.90
13794;DHT22;31160;49.500;7.772;2024-03-25T05:06:58;1.40;99.90
13794;DHT22;31160;49.500;7.772;2024-03-25T05:09:24;1.40;99.90
13794;DHT22;31160;49.500;7.772;2024-03-25T05:11:50;1.40;99.90
13794;DHT22;31160;49.500;7.772;2024-03-25T05:14:16;1.40;99.90
13794;DHT22;31160;49.500;7.772;2024-03-25T05:16:42;1.50;99.90
13794;DHT22;31160;49.500;7.772;2024-03-25T05:19:07;1.50;99.90
13794;DHT22;31160;49.500;7.772;2024-03-25T05:21:33;1.50;99.90
13794;DHT22;31160;49.500;7.772;2024-03-25T05:23:59;1.40;99.90
13794;DHT22;31160;49.500;7.772;2024-03-25T05:26:25;1.50;99.90
13794;DHT22;31160;49.500;7.772;2024-03-25T05:28:54;1.50;99.90
13794;DHT22;31160;49.500;7.772;2024-03-25T05:31:20;1.50;99.90
13794;DHT22;31160;49.500;7.772;2024-03-25T05:33:46;1.50;99.90
13794;DHT22;31160;49.500;7.772;2024-03-25T05:36:13;1.60;99.90
13794;DHT22;31160;49.500;7.772;2024-03-25T05:38:39;1.60;99.90
13794;DHT22;31160;49.500;7.772;2024-03-25T05:41:05;1.60;99.90
13794;DHT22;31160;49.500;7.772;2024-03-25T05:43:31;1.60;99.90
13794;DHT22;31160;49.500;7.772;2024-03-25T05:45:57;1.60;99.90
13794;DHT22;31160;49.500;7.772;2024-03-25T05:48:26;1.60;99.90
13794;DHT22;31160;49.500;7.772;2024-03-25T05:51:03;1.60;99.90
13794;DHT22;31160;49.500;7.772;2024-03-25T05:53:31;1.60;99.90
13794;DHT22;31160;49.500;7.772;2024-03-25T05:55:57;1.60;99.90
13794;DHT22;31160;49.500;7.772;2024-03-25T05:58:26;1.60;99.90
13794;DHT22;31160;49.500;7.772;2024-03-25T06:00:52;1.60;99.90
13794;DHT22;31160;49.500;7.772;2024-03-25T06:03:18;1.60;99.90
13794;DHT22;31160;49.500;7.772;2024-03-25T06:05:45;1.60;99.90
13794;DHT22;31160;49.500;7.772;2024-03-25T06:08:11;1.60;99.90
13794;DHT22;31160;49.500;7.772;2024-03-25T06:10:53;1.70;99.90
13794;DHT22;31160;49.500;7.772;2024-03-25T06:13:19;1.70;99.90
13794;DHT22;31160;49.500;7.772;2024-03-25T06:15:45;1.80;99.90
13794;DHT22;31160;49.500;7.772;2024-03-25T06:18:11;1.80;99.90
13794;DHT22;31160;49.500;7.772;2024-03-25T06:20:37;1.80;99.90
13794;DHT22;31160;49.500;7.772;2024-03-25T06:23:04;1.90;99.90
13794;DHT22;31160;49.500;7.772;2024-03-25T06:25:30;1.90;99.90
13794;DHT22;31160;49.500;7.772;2024-03-25T06:27:56;2.00;99.90
13794;DHT22;31160;49.500;7.772;2024-03-25T06:30:22;2.00;99.90
13794;DHT22;31160;49.500;7.772;2024-03-25T06:33:06;2.10;99.90
13794;DHT22;31160;49.500;7.772;2024-03-25T06:35:51;2.20;99.90
13794;DHT22;31160;49.500;7.772;2024-03-25T06:38:18;2.40;99.90
13794;DHT22;31160;49.500;7.772;2024-03-25T06:40:45;2.60;99.90
13794;DHT22;31160;49.500;7.772;2024-03-25T06:43:11;2.80;99.90
13794;DHT22;31160;49.500;7.772;2024-03-25T06:45:37;3.00;99.90
13794;DHT22;31160;49.500;7.772;2024-03-25T06:48:03;3.20;99.90
13794;DHT22;31160;49.500;7.772;2024-03-25T06:50:29;3.40;99.90
13794;DHT22;31160;49.500;7.772;2024-03-25T06:52:55;3.40;99.90
13794;DHT22;31160;49.500;7.772;2024-03-25T06:55:21;3.50;99.90
13794;DHT22;31160;49.500;7.772;2024-03-25T06:57:50;3.60;99.90
13794;DHT22;31160;49.500;7.772;2024-03-25T07:00:16;3.70;99.90
13794;DHT22;31160;49.500;7.772;2024-03-25T07:02:42;3.80;99.90
13794;DHT22;31160;49.500;7.772;2024-03-25T07:05:08;4.00;99.90
13794;DHT22;31160;49.500;7.772;2024-03-25T07:07:34;4.10;99.90
13794;DHT22;31160;49.500;7.772;2024-03-25T07:10:01;4.20;99.90
13794;DHT22;31160;49.500;7.772;2024-03-25T07:12:27;4.30;99.90
13794;DHT22;31160;49.500;7.772;2024-03-25T07:14:53;4.40;99.90
13794;DHT22;31160;49.500;7.772;2024-03-25T07:17:19;4.60;99.90
13794;DHT22;31160;49.500;7.772;2024-03-25T07:19:47;4.80;99.90
13794;DHT22;31160;49.500;7.772;2024-03-25T07:22:14;4.90;99.90
13794;DHT22;31160;49.500;7.772;2024-03-25T07:24:40;5.10;99.90
13794;DHT22;31160;49.500;7.772;2024-03-25T07:27:05;5.30;99.90
13794;DHT22;31160;49.500;7.772;2024-03-25T07:29:33;5.50;99.90
13794;DHT22;31160;49.500;7.772;2024-03-25T07:31:59;5.80;99.90
13794;DHT22;31160;49.500;7.772;2024-03-25T07:34:26;5.90;99.90
13794;DHT22;31160;49.500;7.772;2024-03-25T07:36:52;5.90;99.90
13794;DHT22;31160;49.500;7.772;2024-03-25T07:39:18;6.10;99.90
13794;DHT22;31160;49.500;7.772;2024-03-25T07:41:44;6.00;99.90
13794;DHT22;31160;49.500;7.772;2024-03-25T07:44:10;6.40;99.90
13794;DHT22;31160;49.500;7.772;2024-03-25T07:46:35;6.60;99.90
13794;DHT22;31160;49.500;7.772;2024-03-25T07:49:01;6.80;99.90
13794;DHT22;31160;49.500;7.772;2024-03-25T07:51:27;6.70;99.90
13794;DHT22;31160;49.500;7.772;2024-03-25T07:53:53;6.80;99.90
13794;DHT22;31160;49.500;7.772;2024-03-25T07:56:20;7.00;99.90
13794;DHT22;31160;49.500;7.772;2024-03-25T07:58:46;7.20;99.90
13794;DHT22;31160;49.500;7.772;2024-03-25T08:01:12;7.30;99.90
13794;DHT22;31160;49.500;7.772;2024-03-25T08:03:38;7.20;99.90
13794;DHT22;31160;49.500;7.772;2024-03-25T08:06:04;7.20;99.90
13794;DHT22;31160;49.500;7.772;2024-03-25T08:08:30;7.30;99.90
13794;DHT22;31160;49.500;7.772;2024-03-25T08:10:56;7.40;99.90
13794;DHT22;31160;49.500;7.772;2024-03-25T08:13:22;7.10;99.90
13794;DHT22;31160;49.500;7.772;2024-03-25T08:15:48;7.10;99.90
13794;DHT22;31160;49.500;7.772;2024-03-25T08:18:13;7.00;99.90
13794;DHT22;31160;49.500;7.772;2024-03-25T08:20:39;7.30;99.90
13794;DHT22;31160;49.500;7.772;2024-03-25T08:23:05;7.60;99.90
13794;DHT22;31160;49.500;7.772;2024-03-25T08:25:33;7.90;99.90
13794;DHT22;31160;49.500;7.772;2024-03-25T08:28:00;8.20;99.90
13794;DHT22;31160;49.500;7.772;2024-03-25T08:30:25;8.60;99.90
13794;DHT22;31160;49.500;7.772;2024-03-25T08:32:51;8.90;99.90
13794;DHT22;31160;49.500;7.772;2024-03-25T08:35:17;8.80;99.90
13794;DHT22;31160;49.500;7.772;2024-03-25T08:37:43;8.90;99.90
13794;DHT22;31160;49.500;7.772;2024-03-25T08:40:09;9.00;99.90
13794;DHT22;31160;49.500;7.772;2024-03-25T08:42:35;9.00;99.90
13794;DHT22;31160;49.500;7.772;2024-03-25T08:45:01;8.90;99.90
13794;DHT22;31160;49.500;7.772;2024-03-25T08:47:27;8.80;99.90
13794;DHT22;31160;49.500;7.772;2024-03-25T08:49:53;8.80;99.90
13794;DHT22;31160;49.500;7.772;2024-03-25T08:52:21;8.90;99.90
13794;DHT22;31160;49.500;7.772;2024-03-25T08:54:47;8.80;99.90
13794;DHT22;31160;49.500;7.772;2024-03-25T08:57:13;8.70;99.90
13794;DHT22;31160;49.500;7.772;2024-03-25T08:59:39;8.40;99.90
13794;DHT22;31160;49.500;7.772;2024-03-25T09:02:05;8.40;99.90
13794;DHT22;31160;49.500;7.772;2024-03-25T09:04:31;8.30;99.90
13794;DHT22;31160;49.500;7.772;2024-03-25T09:06:57;8.40;99.90
13794;DHT22;31160;49.500;7.772;2024-03-25T09:09:23;8.50;99.90
13794;DHT22;31160;49.500;7.772;2024-03-25T09:12:07;8.20;99.90
13794;DHT22;31160;49.500;7.772;2024-03-25T09:14:33;8.50;99.90
13794;DHT22;31160;49.500;7.772;2024-03-25T09:16:59;8.70;99.90
13794;DHT22;31160;49.500;7.772;2024-03-25T09:19:25;9.00;99.90
13794;DHT22;31160;49.500;7.772;2024-03-25T09:21:51;9.00;99.90
13794;DHT22;31160;49.500;7.772;2024-03-25T09:24:17;9.20;99.90
13794;DHT22;31160;49.500;7.772;2024-03-25T09:26:45;9.10;99.90
13794;DHT22;31160;49.500;7.772;2024-03-25T09:29:12;9.10;99.90
13794;DHT22;31160;49.500;7.772;2024-03-25T09:31:38;9.30;99.90
13794;DHT22;31160;49.500;7.772;2024-03-25T09:34:04;9.20;99.90
13794;DHT22;31160;49.500;7.772;2024-03-25T09:36:30;9.30;99.90
13794;DHT22;31160;49.500;7.772;2024-03-25T09:38:56;9.30;99.90
13794;DHT22;31160;49.500;7.772;2024-03-25T09:41:22;9.50;99.90
13794;DHT22;31160;49.500;7.772;2024-03-25T09:43:56;9.70;99.90
13794;DHT22;31160;49.500;7.772;2024-03-25T09:46:23;9.80;99.30
13794;DHT22;31160;49.500;7.772;2024-03-25T09:48:52;9.90;99.10
13794;DHT22;31160;49.500;7.772;2024-03-25T09:51:19;9.80;98.80
13794;DHT22;31160;49.500;7.772;2024-03-25T09:53:46;9.90;98.50
13794;DHT22;31160;49.500;7.772;2024-03-25T09:56:12;9.70;98.80
13794;DHT22;31160;49.500;7.772;2024-03-25T09:58:39;10.00;97.90
13794;DHT22;31160;49.500;7.772;2024-03-25T10:01:05;10.10;97.60
13794;DHT22;31160;49.500;7.772;2024-03-25T10:03:31;10.20;98.30
13794;DHT22;31160;49.500;7.772;2024-03-25T10:05:57;10.10;98.30
13794;DHT22;31160;49.500;7.772;2024-03-25T10:08:23;10.20;98.50
13794;DHT22;31160;49.500;7.772;2024-03-25T10:10:52;10.20;99.10
13794;DHT22;31160;49.500;7.772;2024-03-25T10:13:21;10.30;97.60
13794;DHT22;31160;49.500;7.772;2024-03-25T10:15:48;10.40;97.70
13794;DHT22;31160;49.500;7.772;2024-03-25T10:18:14;10.60;97.90
13794;DHT22;31160;49.500;7.772;2024-03-25T10:20:50;10.70;97.80
13794;DHT22;31160;49.500;7.772;2024-03-25T10:23:20;10.80;97.30
13794;DHT22;31160;49.500;7.772;2024-03-25T10:25:48;10.80;97.30
13794;DHT22;31160;49.500;7.772;2024-03-25T10:28:14;10.90;97.10
13794;DHT22;31160;49.500;7.772;2024-03-25T10:30:41;11.00;96.70
13794;DHT22;31160;49.500;7.772;2024-03-25T10:33:07;11.00;96.00
13794;DHT22;31160;49.500;7.772;2024-03-25T10:35:35;11.00;96.60
13794;DHT22;31160;49.500;7.772;2024-03-25T10:38:04;10.70;96.80
13794;DHT22;31160;49.500;7.772;2024-03-25T10:40:32;10.50;96.90
13794;DHT22;31160;49.500;7.772;2024-03-25T10:43:04;10.70;97.00
13794;DHT22;31160;49.500;7.772;2024-03-25T10:45:37;10.60;97.40
13794;DHT22;31160;49.500;7.772;2024-03-25T10:48:09;10.30;96.50
13794;DHT22;31160;49.500;7.772;2024-03-25T10:50:38;10.00;96.60
13794;DHT22;31160;49.500;7.772;2024-03-25T10:53:05;10.20;96.60
13794;DHT22;31160;49.500;7.772;2024-03-25T10:55:34;10.30;96.60
13794;DHT22;31160;49.500;7.772;2024-03-25T10:58:01;10.50;95.90
13794;DHT22;31160;49.500;7.772;2024-03-25T11:00:28;10.60;93.60
13794;DHT22;31160;49.500;7.772;2024-03-25T11:02:54;11.10;95.40
13794;DHT22;31160;49.500;7.772;2024-03-25T11:05:21;11.50;92.90
13794;DHT22;31160;49.500;7.772;2024-03-25T11:07:47;11.60;93.60
13794;DHT22;31160;49.500;7.772;2024-03-25T11:10:13;11.70;93.80
13794;DHT22;31160;49.500;7.772;2024-03-25T11:12:41;12.00;92.90
13794;DHT22;31160;49.500;7.772;2024-03-25T11:15:08;11.90;90.10
13794;DHT22;31160;49.500;7.772;2024-03-25T11:17:35;12.10;88.40
13794;DHT22;31160;49.500;7.772;2024-03-25T11:20:12;12.30;85.20
13794;DHT22;31160;49.500;7.772;2024-03-25T11:22:50;12.30;86.90
13794;DHT22;31160;49.500;7.772;2024-03-25T11:25:16;12.50;89.90
13794;DHT22;31160;49.500;7.772;2024-03-25T11:27:45;12.20;90.60
13794;DHT22;31160;49.500;7.772;2024-03-25T11:30:15;12.00;90.90
13794;DHT22;31160;49.500;7.772;2024-03-25T11:32:54;11.70;91.50
13794;DHT22;31160;49.500;7.772;2024-03-25T11:35:21;11.50;91.70
13794;DHT22;31160;49.500;7.772;2024-03-25T11:37:48;11.40;91.70
13794;DHT22;31160;49.500;7.772;2024-03-25T11:40:16;11.20;92.00
13794;DHT22;31160;49.500;7.772;2024-03-25T11:42:42;10.80;92.20
13794;DHT22;31160;49.500;7.772;2024-03-25T11:45:16;11.10;92.10
13794;DHT22;31160;49.500;7.772;2024-03-25T11:47:43;10.90;91.90
13794;DHT22;31160;49.500;7.772;2024-03-25T11:50:12;11.10;91.70
13794;DHT22;31160;49.500;7.772;2024-03-25T11:52:38;11.20;92.60
13794;DHT22;31160;49.500;7.772;2024-03-25T11:55:06;11.10;91.70
13794;DHT22;31160;49.500;7.772;2024-03-25T11:57:35;11.40;92.20
13794;DHT22;31160;49.500;7.772;2024-03-25T12:00:01;11.40;92.80
13794;DHT22;31160;49.500;7.772;2024-03-25T12:02:42;11.60;92.70
13794;DHT22;31160;49.500;7.772;2024-03-25T12:05:08;11.80;92.50
13794;DHT22;31160;49.500;7.772;2024-03-25T12:07:34;11.80;92.60
13794;DHT22;31160;49.500;7.772;2024-03-25T12:10:02;11.60;92.10
13794;DHT22;31160;49.500;7.772;2024-03-25T12:12:47;11.20;91.30
13794;DHT22;31160;49.500;7.772;2024-03-25T12:15:13;11.10;91.90
13794;DHT22;31160;49.500;7.772;2024-03-25T12:17:39;11.40;92.10
13794;DHT22;31160;49.500;7.772;2024-03-25T12:20:09;11.50;92.20
13794;DHT22;31160;49.500;7.772;2024-03-25T12:22:37;11.60;92.50
13794;DHT22;31160;49.500;7.772;2024-03-25T12:25:04;11.40;91.70
13794;DHT22;31160;49.500;7.772;2024-03-25T12:27:32;11.60;91.90
13794;DHT22;31160;49.500;7.772;2024-03-25T12:30:02;11.70;91.40
13794;DHT22;31160;49.500;7.772;2024-03-25T12:32:38;12.00;91.60
13794;DHT22;31160;49.500;7.772;2024-03-25T12:35:13;12.30;91.00
13794;DHT22;31160;49.500;7.772;2024-03-25T12:37:41;12.30;91.10
13794;DHT22;31160;49.500;7.772;2024-03-25T12:40:09;12.10;91.10
13794;DHT22;31160;49.500;7.772;2024-03-25T12:42:36;11.90;90.80
13794;DHT22;31160;49.500;7.772;2024-03-25T12:45:02;12.30;90.50
13794;DHT22;31160;49.500;7.772;2024-03-25T12:47:29;12.40;90.50
13794;DHT22;31160;49.500;7.772;2024-03-25T12:49:57;12.40;90.30
13794;DHT22;31160;49.500;7.772;2024-03-25T12:52:23;12.30;89.50
13794;DHT22;31160;49.500;7.772;2024-03-25T12:54:49;12.10;91.00
13794;DHT22;31160;49.500;7.772;2024-03-25T12:57:15;12.20;91.50
13794;DHT22;31160;49.500;7.772;2024-03-25T12:59:41;12.30;91.30
13794;DHT22;31160;49.500;7.772;2024-03-25T13:02:11;12.00;91.90
13794;DHT22;31160;49.500;7.772;2024-03-25T13:04:38;12.20;91.40
13794;DHT22;31160;49.500;7.772;2024-03-25T13:07:05;12.10;92.00
13794;DHT22;31160;49.500;7.772;2024-03-25T13:09:31;12.30;91.60
13794;DHT22;31160;49.500;7.772;2024-03-25T13:11:57;12.20;91.30
13794;DHT22;31160;49.500;7.772;2024-03-25T13:14:23;12.30;91.50
13794;DHT22;31160;49.500;7.772;2024-03-25T13:16:49;12.10;91.70
13794;DHT22;31160;49.500;7.772;2024-03-25T13:19:15;12.10;91.10
13794;DHT22;31160;49.500;7.772;2024-03-25T13:21:41;11.90;91.10
13794;DHT22;31160;49.500;7.772;2024-03-25T13:24:08;11.60;91.50
13794;DHT22;31160;49.500;7.772;2024-03-25T13:26:34;11.60;92.10
13794;DHT22;31160;49.500;7.772;2024-03-25T13:29:00;11.70;91.90
13794;DHT22;31160;49.500;7.772;2024-03-25T13:31:25;11.80;92.10
13794;DHT22;31160;49.500;7.772;2024-03-25T13:33:52;11.60;92.00
13794;DHT22;31160;49.500;7.772;2024-03-25T13:36:18;11.30;91.70
13794;DHT22;31160;49.500;7.772;2024-03-25T13:38:44;11.50;92.20
13794;DHT22;31160;49.500;7.772;2024-03-25T13:41:10;11.60;91.80
13794;DHT22;31160;49.500;7.772;2024-03-25T13:43:42;11.40;92.70
13794;DHT22;31160;49.500;7.772;2024-03-25T13:46:08;11.40;92.60
13794;DHT22;31160;49.500;7.772;2024-03-25T13:48:34;11.50;93.10
13794;DHT22;31160;49.500;7.772;2024-03-25T13:51:00;11.60;93.00
13794;DHT22;31160;49.500;7.772;2024-03-25T13:53:26;11.40;93.20
13794;DHT22;31160;49.500;7.772;2024-03-25T13:55:52;11.20;93.10
13794;DHT22;31160;49.500;7.772;2024-03-25T13:58:18;11.10;93.10
13794;DHT22;31160;49.500;7.772;2024-03-25T14:00:44;11.00;93.70
13794;DHT22;31160;49.500;7.772;2024-03-25T14:03:10;11.00;93.10
13794;DHT22;31160;49.500;7.772;2024-03-25T14:05:35;11.20;93.20
13794;DHT22;31160;49.500;7.772;2024-03-25T14:08:01;11.40;93.00
13794;DHT22;31160;49.500;7.772;2024-03-25T14:10:27;11.40;92.90
13794;DHT22;31160;49.500;7.772;2024-03-25T14:12:53;11.50;92.60
13794;DHT22;31160;49.500;7.772;2024-03-25T14:15:19;11.30;92.20
13794;DHT22;31160;49.500;7.772;2024-03-25T14:17:45;11.30;92.20
13794;DHT22;31160;49.500;7.772;2024-03-25T14:20:11;11.50;92.50
13794;DHT22;31160;49.500;7.772;2024-03-25T14:22:37;11.50;92.20
13794;DHT22;31160;49.500;7.772;2024-03-25T14:25:03;11.40;92.00
13794;DHT22;31160;49.500;7.772;2024-03-25T14:27:29;11.20;92.50
13794;DHT22;31160;49.500;7.772;2024-03-25T14:29:55;11.20;92.40
13794;DHT22;31160;49.500;7.772;2024-03-25T14:32:22;11.30;92.40
13794;DHT22;31160;49.500;7.772;2024-03-25T14:34:48;11.40;92.80
13794;DHT22;31160;49.500;7.772;2024-03-25T14:37:14;11.40;92.40
13794;DHT22;31160;49.500;7.772;2024-03-25T14:39:41;11.30;92.30
13794;DHT22;31160;49.500;7.772;2024-03-25T14:42:10;11.40;92.50
13794;DHT22;31160;49.500;7.772;2024-03-25T14:44:37;11.50;92.30
13794;DHT22;31160;49.500;7.772;2024-03-25T14:47:03;11.50;91.80
13794;DHT22;31160;49.500;7.772;2024-03-25T14:49:29;11.40;92.20
13794;DHT22;31160;49.500;7.772;2024-03-25T14:51:55;11.50;92.10
13794;DHT22;31160;49.500;7.772;2024-03-25T14:54:21;11.60;92.50
13794;DHT22;31160;49.500;7.772;2024-03-25T14:56:47;11.70;92.60
13794;DHT22;31160;49.500;7.772;2024-03-25T14:59:14;11.90;92.10
13794;DHT22;31160;49.500;7.772;2024-03-25T15:01:40;12.00;92.00
13794;DHT22;31160;49.500;7.772;2024-03-25T15:04:05;11.80;91.70
13794;DHT22;31160;49.500;7.772;2024-03-25T15:06:32;11.90;89.70
13794;DHT22;31160;49.500;7.772;2024-03-25T15:09:01;11.70;89.80
13794;DHT22;31160;49.500;7.772;2024-03-25T15:11:26;11.90;88.80
13794;DHT22;31160;49.500;7.772;2024-03-25T15:13:53;11.70;89.30
13794;DHT22;31160;49.500;7.772;2024-03-25T15:16:20;11.60;90.00
13794;DHT22;31160;49.500;7.772;2024-03-25T15:18:46;11.40;90.20
13794;DHT22;31160;49.500;7.772;2024-03-25T15:21:12;11.50;90.10
13794;DHT22;31160;49.500;7.772;2024-03-25T15:23:38;11.60;90.20
13794;DHT22;31160;49.500;7.772;2024-03-25T15:26:04;11.40;90.10
13794;DHT22;31160;49.500;7.772;2024-03-25T15:28:30;11.50;90.20
13794;DHT22;31160;49.500;7.772;2024-03-25T15:30:56;11.50;90.60
13794;DHT22;31160;49.500;7.772;2024-03-25T15:33:22;11.50;90.60
13794;DHT22;31160;49.500;7.772;2024-03-25T15:35:48;11.50;91.20
13794;DHT22;31160;49.500;7.772;2024-03-25T15:38:15;11.40;90.60